sensor_id;sensor_type;location;lat;lon;timestamp;pressure;altitude;pressure_sealevel;temperature;humidity
44131;BME280;29792;48.726;9.248;2022-09-03T00:00:54;96543.72;;;18.07;59.46
44131;BME280;29792;48.726;9.248;2022-09-03T00:03:30;96542.91;;;18.07;59.57
44131;BME280;29792;48.726;9.248;2022-09-03T00:06:27;96542.28;;;18.05;59.02
44131;BME280;29792;48.726;9.248;2022-09-03T00:09:08;96539.53;;;18.06;58.90
44131;BME280;29792;48.726;9.248;2022-09-03T00:11:51;96538.53;;;18.07;58.91
44131;BME280;29792;48.726;9.248;2022-09-03T00:14:18;96531.56;;;18.08;59.26
44131;BME280;29792;48.726;9.248;2022-09-03T00:16:49;96528.97;;;18.08;59.48
44131;BME280;29792;48.726;9.248;2022-09-03T00:19:20;96535.13;;;18.07;59.10
44131;BME280;29792;48.726;9.248;2022-09-03T00:21:50;96532.56;;;18.07;59.68
44131;BME280;29792;48.726;9.248;2022-09-03T00:24:22;96533.53;;;18.06;60.39
44131;BME280;29792;48.726;9.248;2022-09-03T00:26:52;96526.38;;;18.08;60.39
44131;BME280;29792;48.726;9.248;2022-09-03T00:29:45;96532.16;;;18.10;60.23
44131;BME280;29792;48.726;9.248;2022-09-03T00:32:19;96521.00;;;18.09;60.16
44131;BME280;29792;48.726;9.248;2022-09-03T00:34:50;96522.44;;;18.12;60.49
44131;BME280;29792;48.726;9.248;2022-09-03T00:37:20;96526.81;;;18.11;60.26
44131;BME280;29792;48.726;9.248;2022-09-03T00:39:46;96526.81;;;18.11;60.21
44131;BME280;29792;48.726;9.248;2022-09-03T00:42:43;96530.19;;;18.12;60.11
44131;BME280;29792;48.726;9.248;2022-09-03T00:45:22;96530.03;;;18.13;60.71
44131;BME280;29792;48.726;9.248;2022-09-03T00:53:29;96525.81;;;18.12;60.29
44131;BME280;29792;48.726;9.248;2022-09-03T00:56:22;96524.03;;;18.13;60.57
44131;BME280;29792;48.726;9.248;2022-09-03T00:59:00;96521.28;;;18.14;60.52
44131;BME280;29792;48.726;9.248;2022-09-03T01:04:37;96530.03;;;18.13;60.54
44131;BME280;29792;48.726;9.248;2022-09-03T01:13:02;96516.44;;;18.11;60.34
44131;BME280;29792;48.726;9.248;2022-09-03T01:15:55;96517.25;;;18.12;60.33
44131;BME280;29792;48.726;9.248;2022-09-03T01:18:34;96525.03;;;18.12;60.72
44131;BME280;29792;48.726;9.248;2022-09-03T01:23:47;96523.41;;;18.11;60.95
44131;BME280;29792;48.726;9.248;2022-09-03T01:26:35;96528.59;;;18.11;61.22
44131;BME280;29792;48.726;9.248;2022-09-03T01:29:39;96524.38;;;18.10;62.18
44131;BME280;29792;48.726;9.248;2022-09-03T01:32:15;96521.00;;;18.09;62.36
44131;BME280;29792;48.726;9.248;2022-09-03T01:34:55;96521.19;;;18.08;63.04
44131;BME280;29792;48.726;9.248;2022-09-03T01:42:40;96525.94;;;18.04;63.14
44131;BME280;29792;48.726;9.248;2022-09-03T01:48:13;96534.69;;;18.03;64.04
44131;BME280;29792;48.726;9.248;2022-09-03T01:50:52;96533.06;;;18.02;63.36
44131;BME280;29792;48.726;9.248;2022-09-03T01:53:40;96535.03;;;18.00;63.31
44131;BME280;29792;48.726;9.248;2022-09-03T01:59:22;96536.03;;;17.99;63.12
44131;BME280;29792;48.726;9.248;2022-09-03T02:01:56;96537.03;;;17.98;63.47
44131;BME280;29792;48.726;9.248;2022-09-03T02:04:25;96543.19;;;17.97;63.90
44131;BME280;29792;48.726;9.248;2022-09-03T02:06:51;96543.19;;;17.97;64.21
44131;BME280;29792;48.726;9.248;2022-09-03T02:09:18;96550.97;;;17.97;63.76
44131;BME280;29792;48.726;9.248;2022-09-03T02:11:47;96534.16;;;17.93;63.36
44131;BME280;29792;48.726;9.248;2022-09-03T02:14:14;96530.97;;;17.91;63.32
44131;BME280;29792;48.726;9.248;2022-09-03T02:16:39;96545.72;;;17.90;63.51
44131;BME280;29792;48.726;9.248;2022-09-03T02:19:11;96544.25;;;17.88;63.61
44131;BME280;29792;48.726;9.248;2022-09-03T02:21:39;96551.41;;;17.86;63.56
44131;BME280;29792;48.726;9.248;2022-09-03T02:24:08;96552.38;;;17.85;63.46
44131;BME280;29792;48.726;9.248;2022-09-03T02:26:34;96549.38;;;17.81;63.52
44131;BME280;29792;48.726;9.248;2022-09-03T02:29:01;96551.50;;;17.78;63.78
44131;BME280;29792;48.726;9.248;2022-09-03T02:31:27;96547.50;;;17.75;63.71
44131;BME280;29792;48.726;9.248;2022-09-03T02:33:55;96552.84;;;17.74;63.60
44131;BME280;29792;48.726;9.248;2022-09-03T02:36:25;96544.28;;;17.73;64.00
44131;BME280;29792;48.726;9.248;2022-09-03T02:38:52;96542.66;;;17.72;64.03
44131;BME280;29792;48.726;9.248;2022-09-03T02:41:17;96543.47;;;17.73;64.00
44131;BME280;29792;48.726;9.248;2022-09-03T02:43:52;96543.63;;;17.71;64.13
44131;BME280;29792;48.726;9.248;2022-09-03T02:46:21;96543.81;;;17.70;64.20
44131;BME280;29792;48.726;9.248;2022-09-03T02:48:48;96534.00;;;17.65;63.80
44131;BME280;29792;48.726;9.248;2022-09-03T02:51:13;96537.75;;;17.63;64.20
44131;BME280;29792;48.726;9.248;2022-09-03T02:53:39;96538.06;;;17.60;64.95
44131;BME280;29792;48.726;9.248;2022-09-03T02:56:04;96537.44;;;17.58;64.97
44131;BME280;29792;48.726;9.248;2022-09-03T02:58:30;96531.97;;;17.52;65.14
44131;BME280;29792;48.726;9.248;2022-09-03T03:00:58;96538.50;;;17.48;65.04
44131;BME280;29792;48.726;9.248;2022-09-03T03:03:23;96540.63;;;17.45;65.46
44131;BME280;29792;48.726;9.248;2022-09-03T03:05:51;96542.78;;;17.41;65.71
44131;BME280;29792;48.726;9.248;2022-09-03T03:08:18;96540.88;;;17.35;65.72
44131;BME280;29792;48.726;9.248;2022-09-03T03:10:46;96541.25;;;17.32;66.28
44131;BME280;29792;48.726;9.248;2022-09-03T03:13:12;96536.59;;;17.28;65.69
44131;BME280;29792;48.726;9.248;2022-09-03T03:15:38;96539.56;;;17.25;66.15
44131;BME280;29792;48.726;9.248;2022-09-03T03:18:04;96547.66;;;17.22;66.07
44131;BME280;29792;48.726;9.248;2022-09-03T03:20:29;96542.66;;;17.20;66.37
44131;BME280;29792;48.726;9.248;2022-09-03T03:22:54;96545.44;;;17.19;66.52
44131;BME280;29792;48.726;9.248;2022-09-03T03:25:20;96551.75;;;17.16;66.17
44131;BME280;29792;48.726;9.248;2022-09-03T03:27:45;96552.75;;;17.15;66.39
44131;BME280;29792;48.726;9.248;2022-09-03T03:30:11;96552.09;;;17.13;66.93
44131;BME280;29792;48.726;9.248;2022-09-03T03:32:37;96554.69;;;17.13;66.76
44131;BME280;29792;48.726;9.248;2022-09-03T03:35:04;96548.09;;;17.10;66.71
44131;BME280;29792;48.726;9.248;2022-09-03T03:37:30;96544.06;;;17.08;66.53
44131;BME280;29792;48.726;9.248;2022-09-03T03:39:55;96546.81;;;17.06;66.34
44131;BME280;29792;48.726;9.248;2022-09-03T03:42:21;96547.78;;;17.05;66.79
44131;BME280;29792;48.726;9.248;2022-09-03T03:44:46;96553.94;;;17.04;66.84
44131;BME280;29792;48.726;9.248;2022-09-03T03:47:11;96550.75;;;17.02;67.37
44131;BME280;29792;48.726;9.248;2022-09-03T03:49:37;96559.50;;;17.01;67.51
44131;BME280;29792;48.726;9.248;2022-09-03T03:52:02;96551.91;;;17.00;67.61
44131;BME280;29792;48.726;9.248;2022-09-03T03:54:29;96559.03;;;16.98;68.02
44131;BME280;29792;48.726;9.248;2022-09-03T03:56:55;96566.94;;;16.96;68.05
44131;BME280;29792;48.726;9.248;2022-09-03T03:59:20;96558.38;;;16.96;68.01
44131;BME280;29792;48.726;9.248;2022-09-03T04:01:45;96561.16;;;16.94;67.97
44131;BME280;29792;48.726;9.248;2022-09-03T04:04:10;96562.16;;;16.93;67.77
44131;BME280;29792;48.726;9.248;2022-09-03T04:06:36;96561.34;;;16.93;68.26
44131;BME280;29792;48.726;9.248;2022-09-03T04:09:01;96556.16;;;16.93;68.42
44131;BME280;29792;48.726;9.248;2022-09-03T04:11:26;96560.53;;;16.92;68.71
44131;BME280;29792;48.726;9.248;2022-09-03T04:13:52;96556.16;;;16.93;68.87
44131;BME280;29792;48.726;9.248;2022-09-03T04:16:19;96558.09;;;16.91;68.68
44131;BME280;29792;48.726;9.248;2022-09-03T04:18:45;96557.31;;;16.90;68.44
44131;BME280;29792;48.726;9.248;2022-09-03T04:21:13;96560.88;;;16.89;68.32
44131;BME280;29792;48.726;9.248;2022-09-03T04:23:43;96550.88;;;16.86;68.66
44131;BME280;29792;48.726;9.248;2022-09-03T04:26:11;96549.59;;;16.82;68.28
44131;BME280;29792;48.726;9.248;2022-09-03T04:28:36;96549.13;;;16.78;68.26
44131;BME280;29792;48.726;9.248;2022-09-03T04:31:04;96550.13;;;16.77;68.66
44131;BME280;29792;48.726;9.248;2022-09-03T04:33:31;96546.91;;;16.75;69.31
44131;BME280;29792;48.726;9.248;2022-09-03T04:36:03;96556.63;;;16.73;69.40
44131;BME280;29792;48.726;9.248;2022-09-03T04:38:30;96555.00;;;16.72;69.72
44131;BME280;29792;48.726;9.248;2022-09-03T04:40:56;96559.38;;;16.72;69.73
44131;BME280;29792;48.726;9.248;2022-09-03T04:43:23;96561.78;;;16.73;70.33
44131;BME280;29792;48.726;9.248;2022-09-03T04:45:48;96562.75;;;16.72;70.49
44131;BME280;29792;48.726;9.248;2022-09-03T04:48:13;96561.16;;;16.71;70.52
44131;BME280;29792;48.726;9.248;2022-09-03T04:50:39;96553.38;;;16.71;71.07
44131;BME280;29792;48.726;9.248;2022-09-03T04:53:04;96557.59;;;16.72;70.89
44131;BME280;29792;48.726;9.248;2022-09-03T04:55:36;96561.94;;;16.72;71.77
44131;BME280;29792;48.726;9.248;2022-09-03T04:58:02;96564.53;;;16.72;71.60
44131;BME280;29792;48.726;9.248;2022-09-03T05:00:29;96565.34;;;16.72;71.62
44131;BME280;29792;48.726;9.248;2022-09-03T05:02:54;96562.94;;;16.71;71.54
44131;BME280;29792;48.726;9.248;2022-09-03T05:05:20;96561.34;;;16.70;71.51
44131;BME280;29792;48.726;9.248;2022-09-03T05:07:45;96565.72;;;16.69;72.13
44131;BME280;29792;48.726;9.248;2022-09-03T05:10:12;96559.72;;;16.69;71.85
44131;BME280;29792;48.726;9.248;2022-09-03T05:12:40;96554.56;;;16.69;72.04
44131;BME280;29792;48.726;9.248;2022-09-03T05:15:06;96558.56;;;16.71;72.07
44131;BME280;29792;48.726;9.248;2022-09-03T05:17:32;96557.75;;;16.71;72.03
44131;BME280;29792;48.726;9.248;2022-09-03T05:19:57;96556.78;;;16.72;71.82
44131;BME280;29792;48.726;9.248;2022-09-03T05:22:22;96556.94;;;16.70;71.52
44131;BME280;29792;48.726;9.248;2022-09-03T05:24:48;96555.97;;;16.71;71.51
44131;BME280;29792;48.726;9.248;2022-09-03T05:27:15;96553.06;;;16.74;71.81
44131;BME280;29792;48.726;9.248;2022-09-03T05:29:41;96556.44;;;16.75;72.04
44131;BME280;29792;48.726;9.248;2022-09-03T05:32:06;96569.22;;;16.76;72.45
44131;BME280;29792;48.726;9.248;2022-09-03T05:34:32;96561.28;;;16.78;71.88
44131;BME280;29792;48.726;9.248;2022-09-03T05:36:57;96567.25;;;16.78;72.00
44131;BME280;29792;48.726;9.248;2022-09-03T05:39:22;96563.06;;;16.77;71.61
44131;BME280;29792;48.726;9.248;2022-09-03T05:41:47;96565.28;;;16.81;72.09
44131;BME280;29792;48.726;9.248;2022-09-03T05:44:14;96565.13;;;16.82;72.25
44131;BME280;29792;48.726;9.248;2022-09-03T05:46:39;96565.13;;;16.82;72.51
44131;BME280;29792;48.726;9.248;2022-09-03T05:49:06;96562.53;;;16.82;72.10
44131;BME280;29792;48.726;9.248;2022-09-03T05:51:33;96570.28;;;16.82;72.62
44131;BME280;29792;48.726;9.248;2022-09-03T05:53:59;96574.66;;;16.82;72.63
44131;BME280;29792;48.726;9.248;2022-09-03T05:56:26;96569.66;;;16.80;72.35
44131;BME280;29792;48.726;9.248;2022-09-03T05:58:54;96572.25;;;16.80;72.96
44131;BME280;29792;48.726;9.248;2022-09-03T06:01:29;96578.06;;;16.82;73.18
44131;BME280;29792;48.726;9.248;2022-09-03T06:03:57;96579.50;;;16.85;73.27
44131;BME280;29792;48.726;9.248;2022-09-03T06:06:24;96576.91;;;16.85;73.30
44131;BME280;29792;48.726;9.248;2022-09-03T06:08:56;96577.91;;;16.84;73.38
44131;BME280;29792;48.726;9.248;2022-09-03T06:11:23;96576.13;;;16.84;73.59
44131;BME280;29792;48.726;9.248;2022-09-03T06:13:52;96583.06;;;16.84;73.53
44131;BME280;29792;48.726;9.248;2022-09-03T06:16:17;96577.91;;;16.84;73.22
44131;BME280;29792;48.726;9.248;2022-09-03T06:18:42;96581.44;;;16.83;73.31
44131;BME280;29792;48.726;9.248;2022-09-03T06:21:08;96585.66;;;16.84;73.53
44131;BME280;29792;48.726;9.248;2022-09-03T06:23:34;96587.28;;;16.85;73.48
44131;BME280;29792;48.726;9.248;2022-09-03T06:26:08;96585.50;;;16.85;73.70
44131;BME280;29792;48.726;9.248;2022-09-03T06:28:35;96585.94;;;16.89;74.05
44131;BME280;29792;48.726;9.248;2022-09-03T06:31:03;96583.97;;;16.91;73.79
44131;BME280;29792;48.726;9.248;2022-09-03T06:33:31;96584.78;;;16.91;73.77
44131;BME280;29792;48.726;9.248;2022-09-03T06:35:58;96583.81;;;16.92;73.71
44131;BME280;29792;48.726;9.248;2022-09-03T06:38:25;96591.06;;;16.97;73.94
44131;BME280;29792;48.726;9.248;2022-09-03T06:40:53;96586.34;;;17.00;74.00
44131;BME280;29792;48.726;9.248;2022-09-03T06:43:18;96581.81;;;17.02;74.20
44131;BME280;29792;48.726;9.248;2022-09-03T06:46:01;96592.59;;;17.06;74.49
44131;BME280;29792;48.726;9.248;2022-09-03T06:48:29;96592.28;;;17.09;74.43
44131;BME280;29792;48.726;9.248;2022-09-03T06:51:04;96592.88;;;17.11;74.44
44131;BME280;29792;48.726;9.248;2022-09-03T06:53:37;96592.38;;;17.15;74.34
44131;BME280;29792;48.726;9.248;2022-09-03T06:56:07;96596.56;;;17.16;74.30
44131;BME280;29792;48.726;9.248;2022-09-03T06:58:35;96583.09;;;17.21;74.47
44131;BME280;29792;48.726;9.248;2022-09-03T07:01:06;96587.31;;;17.22;75.25
44131;BME280;29792;48.726;9.248;2022-09-03T07:03:33;96590.16;;;17.27;74.36
44131;BME280;29792;48.726;9.248;2022-09-03T07:06:00;96595.81;;;17.31;74.83
44131;BME280;29792;48.726;9.248;2022-09-03T07:08:25;96591.09;;;17.34;74.66
44131;BME280;29792;48.726;9.248;2022-09-03T07:10:50;96598.50;;;17.37;74.70
44131;BME280;29792;48.726;9.248;2022-09-03T07:13:16;96597.19;;;17.41;74.48
44131;BME280;29792;48.726;9.248;2022-09-03T07:15:41;96595.84;;;17.45;74.47
44131;BME280;29792;48.726;9.248;2022-09-03T07:18:07;96594.50;;;17.49;75.05
44131;BME280;29792;48.726;9.248;2022-09-03T07:20:33;96588.16;;;17.52;74.25
44131;BME280;29792;48.726;9.248;2022-09-03T07:22:59;96601.41;;;17.57;74.41
44131;BME280;29792;48.726;9.248;2022-09-03T07:25:24;96597.97;;;17.65;74.69
44131;BME280;29792;48.726;9.248;2022-09-03T07:27:53;96594.47;;;17.72;74.31
44131;BME280;29792;48.726;9.248;2022-09-03T07:30:18;96591.97;;;17.79;74.40
44131;BME280;29792;48.726;9.248;2022-09-03T07:32:45;96600.66;;;17.86;74.76
44131;BME280;29792;48.726;9.248;2022-09-03T07:35:10;96599.16;;;17.91;74.52
44131;BME280;29792;48.726;9.248;2022-09-03T07:37:35;96596.47;;;18.00;74.57
44131;BME280;29792;48.726;9.248;2022-09-03T07:40:02;96603.16;;;18.09;74.81
44131;BME280;29792;48.726;9.248;2022-09-03T07:42:28;96598.88;;;18.16;74.37
44131;BME280;29792;48.726;9.248;2022-09-03T07:44:55;96597.97;;;18.23;74.58
44131;BME280;29792;48.726;9.248;2022-09-03T07:47:20;96604.63;;;18.33;75.06
44131;BME280;29792;48.726;9.248;2022-09-03T07:49:45;96609.56;;;18.42;74.38
44131;BME280;29792;48.726;9.248;2022-09-03T07:52:11;96604.63;;;18.47;73.91
44131;BME280;29792;48.726;9.248;2022-09-03T07:54:36;96609.91;;;18.54;73.88
44131;BME280;29792;48.726;9.248;2022-09-03T07:57:01;96607.22;;;18.62;73.94
44131;BME280;29792;48.726;9.248;2022-09-03T07:59:26;96607.75;;;18.72;74.00
44131;BME280;29792;48.726;9.248;2022-09-03T08:01:52;96605.63;;;18.82;74.23
44131;BME280;29792;48.726;9.248;2022-09-03T08:04:17;96604.72;;;18.90;73.60
44131;BME280;29792;48.726;9.248;2022-09-03T08:06:43;96598.22;;;19.00;74.34
44131;BME280;29792;48.726;9.248;2022-09-03T08:09:10;96613.69;;;19.09;73.47
44131;BME280;29792;48.726;9.248;2022-09-03T08:11:39;96607.75;;;19.15;72.95
44131;BME280;29792;48.726;9.248;2022-09-03T08:14:08;96608.19;;;19.18;73.02
44131;BME280;29792;48.726;9.248;2022-09-03T08:16:36;96616.03;;;19.25;73.30
44131;BME280;29792;48.726;9.248;2022-09-03T08:19:02;96615.28;;;19.31;73.67
44131;BME280;29792;48.726;9.248;2022-09-03T08:21:27;96619.19;;;19.41;73.66
44131;BME280;29792;48.726;9.248;2022-09-03T08:23:55;96623.16;;;19.59;73.12
44131;BME280;29792;48.726;9.248;2022-09-03T08:26:27;96619.47;;;19.74;72.83
44131;BME280;29792;48.726;9.248;2022-09-03T08:28:53;96616.59;;;19.97;72.87
44131;BME280;29792;48.726;9.248;2022-09-03T08:31:21;96625.31;;;20.17;71.30
44131;BME280;29792;48.726;9.248;2022-09-03T08:33:48;96624.88;;;20.42;72.03
44131;BME280;29792;48.726;9.248;2022-09-03T08:36:17;96619.56;;;20.70;71.81
44131;BME280;29792;48.726;9.248;2022-09-03T08:38:45;96618.03;;;20.95;70.75
44131;BME280;29792;48.726;9.248;2022-09-03T08:41:26;96628.53;;;21.21;69.26
44131;BME280;29792;48.726;9.248;2022-09-03T08:44:38;96635.53;;;21.41;68.97
44131;BME280;29792;48.726;9.248;2022-09-03T08:47:10;96633.75;;;21.54;68.75
44131;BME280;29792;48.726;9.248;2022-09-03T08:52:46;96635.53;;;22.00;68.27
44131;BME280;29792;48.726;9.248;2022-09-03T08:55:30;96643.56;;;22.12;66.96
44131;BME280;29792;48.726;9.248;2022-09-03T08:58:07;96641.53;;;22.14;67.06
44131;BME280;29792;48.726;9.248;2022-09-03T09:00:48;96633.91;;;22.19;66.80
44131;BME280;29792;48.726;9.248;2022-09-03T09:03:36;96632.47;;;22.23;65.87
44131;BME280;29792;48.726;9.248;2022-09-03T09:06:13;96638.47;;;22.30;66.92
44131;BME280;29792;48.726;9.248;2022-09-03T09:08:50;96646.09;;;22.31;65.49
44131;BME280;29792;48.726;9.248;2022-09-03T09:11:46;96643.94;;;22.28;65.31
44131;BME280;29792;48.726;9.248;2022-09-03T09:14:37;96646.72;;;22.27;65.34
44131;BME280;29792;48.726;9.248;2022-09-03T09:20:00;96653.13;;;22.31;66.33
44131;BME280;29792;48.726;9.248;2022-09-03T09:22:32;96650.94;;;22.28;65.67
44131;BME280;29792;48.726;9.248;2022-09-03T09:25:03;96654.78;;;22.19;64.79
44131;BME280;29792;48.726;9.248;2022-09-03T09:27:31;96649.19;;;22.08;65.50
44131;BME280;29792;48.726;9.248;2022-09-03T09:29:58;96649.00;;;22.03;66.68
44131;BME280;29792;48.726;9.248;2022-09-03T09:32:26;96643.16;;;22.01;66.06
44131;BME280;29792;48.726;9.248;2022-09-03T09:34:51;96641.56;;;22.00;66.38
44131;BME280;29792;48.726;9.248;2022-09-03T09:37:19;96648.97;;;22.10;66.77
44131;BME280;29792;48.726;9.248;2022-09-03T09:39:59;96641.72;;;22.25;67.27
44131;BME280;29792;48.726;9.248;2022-09-03T09:42:25;96636.81;;;22.49;67.05
44131;BME280;29792;48.726;9.248;2022-09-03T09:44:51;96629.91;;;22.74;66.44
44131;BME280;29792;48.726;9.248;2022-09-03T09:47:34;96625.91;;;23.03;67.07
44131;BME280;29792;48.726;9.248;2022-09-03T09:50:02;96624.75;;;23.30;65.69
44131;BME280;29792;48.726;9.248;2022-09-03T09:52:29;96629.81;;;23.56;65.49
44131;BME280;29792;48.726;9.248;2022-09-03T09:55:08;96627.66;;;23.72;63.72
44131;BME280;29792;48.726;9.248;2022-09-03T09:57:34;96626.81;;;23.78;62.50
44131;BME280;29792;48.726;9.248;2022-09-03T10:00:08;96632.84;;;23.78;62.25
44131;BME280;29792;48.726;9.248;2022-09-03T10:02:38;96636.03;;;23.80;61.47
44131;BME280;29792;48.726;9.248;2022-09-03T10:05:28;96631.81;;;23.79;62.14
44131;BME280;29792;48.726;9.248;2022-09-03T10:08:03;96628.81;;;23.76;61.38
44131;BME280;29792;48.726;9.248;2022-09-03T10:10:31;96631.72;;;23.68;61.33
44131;BME280;29792;48.726;9.248;2022-09-03T10:16:11;96632.88;;;23.47;60.54
44131;BME280;29792;48.726;9.248;2022-09-03T10:18:41;96643.19;;;23.42;61.49
44131;BME280;29792;48.726;9.248;2022-09-03T10:21:14;96636.97;;;23.36;61.86
44131;BME280;29792;48.726;9.248;2022-09-03T10:26:39;96638.03;;;23.29;61.62
44131;BME280;29792;48.726;9.248;2022-09-03T10:29:06;96639.47;;;23.25;61.69
44131;BME280;29792;48.726;9.248;2022-09-03T10:31:39;96629.44;;;23.21;61.53
44131;BME280;29792;48.726;9.248;2022-09-03T10:37:20;96636.25;;;23.23;62.03
44131;BME280;29792;48.726;9.248;2022-09-03T10:40:10;96642.28;;;23.23;61.96
44131;BME280;29792;48.726;9.248;2022-09-03T10:43:03;96644.09;;;23.23;61.44
44131;BME280;29792;48.726;9.248;2022-09-03T10:45:45;96642.69;;;23.27;62.16
44131;BME280;29792;48.726;9.248;2022-09-03T10:48:41;96643.84;;;23.31;60.46
44131;BME280;29792;48.726;9.248;2022-09-03T10:51:19;96640.59;;;23.35;61.49
44131;BME280;29792;48.726;9.248;2022-09-03T10:54:06;96642.78;;;23.38;61.18
44131;BME280;29792;48.726;9.248;2022-09-03T10:56:48;96631.91;;;23.41;61.19
44131;BME280;29792;48.726;9.248;2022-09-03T10:59:38;96629.88;;;23.43;61.50
44131;BME280;29792;48.726;9.248;2022-09-03T11:04:49;96625.22;;;23.52;61.71
44131;BME280;29792;48.726;9.248;2022-09-03T11:07:20;96619.63;;;23.48;61.72
44131;BME280;29792;48.726;9.248;2022-09-03T11:09:54;96623.41;;;23.46;61.98
44131;BME280;29792;48.726;9.248;2022-09-03T11:12:35;96616.22;;;23.41;61.48
44131;BME280;29792;48.726;9.248;2022-09-03T11:15:22;96618.84;;;23.41;62.37
44131;BME280;29792;48.726;9.248;2022-09-03T11:17:53;96607.19;;;23.37;61.36
44131;BME280;29792;48.726;9.248;2022-09-03T11:20:23;96610.66;;;23.31;61.57
44131;BME280;29792;48.726;9.248;2022-09-03T11:22:53;96615.75;;;23.26;61.80
44131;BME280;29792;48.726;9.248;2022-09-03T11:25:22;96605.09;;;23.21;61.71
44131;BME280;29792;48.726;9.248;2022-09-03T11:33:23;96602.00;;;23.06;62.80
44131;BME280;29792;48.726;9.248;2022-09-03T11:35:57;96598.41;;;23.00;62.62
44131;BME280;29792;48.726;9.248;2022-09-03T11:38:29;96594.81;;;22.95;63.01
44131;BME280;29792;48.726;9.248;2022-09-03T11:41:27;96600.88;;;22.89;63.51
44131;BME280;29792;48.726;9.248;2022-09-03T11:43:53;96600.13;;;22.81;63.23
44131;BME280;29792;48.726;9.248;2022-09-03T11:48:51;96588.94;;;22.74;63.27
44131;BME280;29792;48.726;9.248;2022-09-03T11:51:29;96609.38;;;22.71;63.97
44131;BME280;29792;48.726;9.248;2022-09-03T11:54:04;96616.84;;;22.67;63.71
44131;BME280;29792;48.726;9.248;2022-09-03T11:56:31;96623.72;;;22.62;63.93
44131;BME280;29792;48.726;9.248;2022-09-03T12:01:39;96646.47;;;22.48;65.16
44131;BME280;29792;48.726;9.248;2022-09-03T12:04:12;96653.31;;;22.42;65.00
44131;BME280;29792;48.726;9.248;2022-09-03T12:06:59;96656.16;;;22.34;65.68
44131;BME280;29792;48.726;9.248;2022-09-03T12:10:03;96654.16;;;22.23;66.05
44131;BME280;29792;48.726;9.248;2022-09-03T12:18:34;96658.41;;;21.98;69.71
44131;BME280;29792;48.726;9.248;2022-09-03T12:21:03;96677.88;;;21.89;71.10
44131;BME280;29792;48.726;9.248;2022-09-03T12:26:08;96687.66;;;21.21;70.69
44131;BME280;29792;48.726;9.248;2022-09-03T12:28:39;96683.84;;;20.76;72.28
44131;BME280;29792;48.726;9.248;2022-09-03T12:33:44;96697.66;;;20.01;75.04
44131;BME280;29792;48.726;9.248;2022-09-03T12:36:09;96698.44;;;19.73;76.29
44131;BME280;29792;48.726;9.248;2022-09-03T12:38:35;96695.84;;;19.52;77.61
44131;BME280;29792;48.726;9.248;2022-09-03T12:41:00;96694.06;;;19.38;78.89
44131;BME280;29792;48.726;9.248;2022-09-03T12:43:27;96699.31;;;19.23;79.50
44131;BME280;29792;48.726;9.248;2022-09-03T12:45:53;96703.41;;;19.11;80.74
44131;BME280;29792;48.726;9.248;2022-09-03T12:48:19;96701.66;;;18.97;81.31
44131;BME280;29792;48.726;9.248;2022-09-03T12:50:47;96708.47;;;18.83;82.25
44131;BME280;29792;48.726;9.248;2022-09-03T12:53:23;96698.69;;;18.64;82.63
44131;BME280;29792;48.726;9.248;2022-09-03T12:56:00;96697.81;;;18.49;83.50
44131;BME280;29792;48.726;9.248;2022-09-03T12:58:33;96702.03;;;18.35;84.70
44131;BME280;29792;48.726;9.248;2022-09-03T13:01:14;96702.84;;;18.21;85.22
44131;BME280;29792;48.726;9.248;2022-09-03T13:03:54;96703.00;;;18.05;86.34
44131;BME280;29792;48.726;9.248;2022-09-03T13:06:27;96691.44;;;17.92;87.24
44131;BME280;29792;48.726;9.248;2022-09-03T13:08:58;96690.72;;;17.84;88.60
44131;BME280;29792;48.726;9.248;2022-09-03T13:11:25;96695.78;;;17.77;89.05
44131;BME280;29792;48.726;9.248;2022-09-03T13:22:20;96702.25;;;17.59;92.10
44131;BME280;29792;48.726;9.248;2022-09-03T13:27:52;96707.78;;;17.55;93.02
44131;BME280;29792;48.726;9.248;2022-09-03T13:30:20;96708.41;;;17.58;93.22
44131;BME280;29792;48.726;9.248;2022-09-03T13:32:57;96706.63;;;17.58;93.72
44131;BME280;29792;48.726;9.248;2022-09-03T13:35:39;96704.66;;;17.60;94.59
44131;BME280;29792;48.726;9.248;2022-09-03T13:38:36;96704.19;;;17.65;95.10
44131;BME280;29792;48.726;9.248;2022-09-03T13:41:12;96706.25;;;17.61;94.64
44131;BME280;29792;48.726;9.248;2022-09-03T13:43:53;96702.25;;;17.59;94.77
44131;BME280;29792;48.726;9.248;2022-09-03T13:52:57;96702.31;;;17.73;98.30
44131;BME280;29792;48.726;9.248;2022-09-03T13:55:45;96697.34;;;17.86;99.91
44131;BME280;29792;48.726;9.248;2022-09-03T13:58:28;96690.75;;;17.99;100.00
44131;BME280;29792;48.726;9.248;2022-09-03T14:03:35;96677.25;;;18.18;100.00
44131;BME280;29792;48.726;9.248;2022-09-03T14:06:28;96678.16;;;18.25;100.00
44131;BME280;29792;48.726;9.248;2022-09-03T14:12:17;96689.78;;;18.44;100.00
44131;BME280;29792;48.726;9.248;2022-09-03T14:14:58;96681.09;;;18.51;100.00
44131;BME280;29792;48.726;9.248;2022-09-03T14:20:11;96675.84;;;18.59;99.68
44131;BME280;29792;48.726;9.248;2022-09-03T14:22:47;96681.31;;;18.64;100.00
44131;BME280;29792;48.726;9.248;2022-09-03T14:25:17;96687.00;;;18.75;100.00
44131;BME280;29792;48.726;9.248;2022-09-03T14:27:42;96678.50;;;18.81;99.59
44131;BME280;29792;48.726;9.248;2022-09-03T14:33:08;96669.59;;;19.04;98.95
44131;BME280;29792;48.726;9.248;2022-09-03T14:35:38;96666.25;;;19.11;97.45
44131;BME280;29792;48.726;9.248;2022-09-03T14:38:22;96672.66;;;19.15;96.92
44131;BME280;29792;48.726;9.248;2022-09-03T14:44:07;96666.63;;;19.29;96.42
44131;BME280;29792;48.726;9.248;2022-09-03T14:47:01;96659.66;;;19.29;95.89
44131;BME280;29792;48.726;9.248;2022-09-03T14:58:37;96663.06;;;19.51;95.61
44131;BME280;29792;48.726;9.248;2022-09-03T15:01:33;96659.53;;;19.59;94.64
44131;BME280;29792;48.726;9.248;2022-09-03T15:07:11;96664.13;;;19.85;93.60
44131;BME280;29792;48.726;9.248;2022-09-03T15:13:20;96661.53;;;20.19;93.68
44131;BME280;29792;48.726;9.248;2022-09-03T15:21:29;96658.13;;;20.53;89.75
44131;BME280;29792;48.726;9.248;2022-09-03T15:26:55;96648.44;;;20.75;89.15